Time;durP1;ratioP1;P1;durP2;ratioP2;P2;SDS_P1;SDS_P2;PMS_P1;PMS_P2;Temp;Humidity;BMP_temperature;BMP_pressure;BME280_temperature;BME280_humidity;BME280_pressure;Samples;Min_cycle;Max_cycle;Signal;HPM_P1;HPM_P2
2021/08/26 00:08:22;;;;;;;1999.90;999.90;;;17.80;1.00;;;;;;4904639;28;20486;-81
2021/08/26 00:12:14;;;;;;;;;;;;;;;;;;;;;
2021/08/26 00:14:59;;;;;;;1999.90;999.90;;;17.60;1.00;;;;;;5034119;28;20442;-81
2021/08/26 00:18:13;;;;;;;;;;;;;;;;;;;;;
2021/08/26 00:20:40;;;;;;;1999.90;999.90;;;17.50;1.00;;;;;;5033668;28;20463;-81
2021/08/26 00:23:09;;;;;;;1999.90;999.90;;;17.40;1.00;;;;;;5032138;28;20408;-82
2021/08/26 00:25:41;;;;;;;1999.90;999.90;;;17.40;1.00;;;;;;5031685;28;20415;-81
2021/08/26 00:28:35;;;;;;;;;;;;;;;;;;;;;
2021/08/26 00:31:29;;;;;;;1999.90;999.90;;;17.40;1.00;;;;;;5033746;28;20429;-81
2021/08/26 00:34:13;;;;;;;1999.90;999.90;;;17.30;1.00;;;;;;5033796;28;20404;-81
2021/08/26 00:36:53;;;;;;;1999.90;999.90;;;17.30;1.00;;;;;;5033375;28;20407;-81
2021/08/26 00:39:31;;;;;;;1999.90;999.90;;;17.30;1.00;;;;;;5033702;28;20380;-81
2021/08/26 00:42:13;;;;;;;1999.90;999.90;;;17.30;1.00;;;;;;5032509;28;20410;-81
2021/08/26 00:44:45;;;;;;;1999.90;999.90;;;17.40;1.00;;;;;;5011404;28;20445;-81
2021/08/26 00:47:35;;;;;;;1999.90;999.90;;;17.40;1.00;;;;;;5033262;28;20791;-81
2021/08/26 00:50:19;;;;;;;1999.90;999.90;;;17.30;1.00;;;;;;5023473;28;20511;-81
2021/08/26 00:52:48;;;;;;;1999.90;999.90;;;17.30;1.00;;;;;;5033538;28;20407;-81
2021/08/26 00:55:14;;;;;;;1999.90;999.90;;;17.20;10.60;;;;;;5015574;28;20448;-81
2021/08/26 00:57:40;;;;;;;1999.90;999.90;;;17.20;72.10;;;;;;5033506;28;20779;-81
2021/08/26 01:00:13;;;;;;;1999.90;999.90;;;17.10;99.90;;;;;;5032245;28;20943;-81
2021/08/26 01:03:34;;;;;;;1999.90;999.90;;;17.10;99.90;;;;;;5014880;28;20880;-81
2021/08/26 01:06:28;;;;;;;1999.90;999.90;;;17.10;99.90;;;;;;5023751;28;20381;-82
2021/08/26 01:09:12;;;;;;;1999.90;999.90;;;17.00;99.90;;;;;;5033358;28;20410;-81
2021/08/26 01:11:55;;;;;;;1999.90;999.90;;;17.00;99.90;;;;;;5033105;28;20412;-82
2021/08/26 01:14:24;;;;;;;1999.90;999.90;;;17.00;1.00;;;;;;5016230;28;20444;-81
2021/08/26 01:17:06;;;;;;;1999.90;999.90;;;17.00;1.00;;;;;;5015390;28;20455;-82
2021/08/26 01:19:42;;;;;;;1999.90;999.90;;;16.90;1.00;;;;;;5033361;28;20408;-81
2021/08/26 01:22:41;;;;;;;1999.90;999.90;;;16.90;1.00;;;;;;5033074;28;20421;-81
2021/08/26 01:25:53;;;;;;;;;;;;;;;;;;;;;
2021/08/26 01:28:26;;;;;;;1999.90;999.90;;;17.00;39.30;;;;;;5032804;28;20464;-81
2021/08/26 01:31:11;;;;;;;1999.90;999.90;;;16.90;99.90;;;;;;5031750;28;20412;-81
2021/08/26 01:37:28;;;;;;;1999.90;999.90;;;17.00;99.90;;;;;;5035487;28;20801;-81
2021/08/26 01:40:06;;;;;;;1999.90;999.90;;;16.90;97.70;;;;;;5036651;28;20422;-81
2021/08/26 01:43:10;;;;;;;1999.90;999.90;;;16.80;99.90;;;;;;5036498;28;20480;-81
2021/08/26 01:46:15;;;;;;;1999.90;999.90;;;16.90;1.00;;;;;;5006339;28;20417;-81
2021/08/26 01:49:06;;;;;;;1999.90;999.90;;;16.80;99.90;;;;;;4952874;29;20901;-81
2021/08/26 01:51:44;;;;;;;1999.90;999.90;;;16.80;1.00;;;;;;5009085;28;20856;-81
2021/08/26 01:54:16;;;;;;;1999.90;999.90;;;16.80;1.00;;;;;;5035019;28;20812;-81
2021/08/26 01:56:55;;;;;;;1999.90;999.90;;;16.80;94.30;;;;;;5036073;28;20406;-81
2021/08/26 01:59:34;;;;;;;1999.90;999.90;;;16.80;94.80;;;;;;5036098;28;20498;-81
2021/08/26 02:02:00;;;;;;;1999.90;999.90;;;16.80;99.90;;;;;;5035544;28;20454;-81
2021/08/26 02:05:13;;;;;;;1999.90;999.90;;;16.80;99.90;;;;;;5036055;28;20815;-81
2021/08/26 02:07:25;;;;;;;1999.90;999.90;;;16.70;1.00;;;;;;5030292;28;20200;-82
2021/08/26 02:09:54;;;;;;;1999.90;999.90;;;16.70;1.00;;;;;;5034583;28;20446;-82
2021/08/26 02:12:28;;;;;;;1999.90;999.90;;;16.70;1.00;;;;;;5035942;28;20415;-81
2021/08/26 02:14:59;;;;;;;1999.90;999.90;;;16.70;69.10;;;;;;5035842;28;20433;-82
2021/08/26 02:17:33;;;;;;;1999.90;999.90;;;16.70;99.90;;;;;;5035597;28;20473;-81
2021/08/26 02:20:07;;;;;;;1999.90;999.90;;;16.70;99.90;;;;;;5035782;28;20399;-81
2021/08/26 02:22:42;;;;;;;1999.90;999.90;;;16.70;99.90;;;;;;5035769;28;20384;-82
2021/08/26 02:25:13;;;;;;;1999.90;999.90;;;16.60;99.90;;;;;;5018298;28;20403;-82
2021/08/26 02:27:45;;;;;;;1999.90;999.90;;;16.70;99.90;;;;;;5035668;28;20427;-82
2021/08/26 02:30:20;;;;;;;1999.90;999.90;;;16.60;99.90;;;;;;5035693;28;20408;-82
2021/08/26 02:32:52;;;;;;;1999.90;999.90;;;16.60;1.00;;;;;;5034288;28;20410;-82
2021/08/26 02:35:18;;;;;;;1999.90;999.90;;;16.60;1.00;;;;;;5017374;28;20447;-82
2021/08/26 02:37:46;;;;;;;1999.90;999.90;;;16.60;1.00;;;;;;5034880;28;20430;-82
2021/08/26 02:40:12;;;;;;;1999.90;999.90;;;16.60;1.00;;;;;;5034939;28;20247;-82
2021/08/26 02:42:43;;;;;;;1999.90;999.90;;;16.60;1.00;;;;;;5035293;28;20462;-82
2021/08/26 02:45:09;;;;;;;1999.90;999.90;;;16.60;1.00;;;;;;5035305;28;20236;-82
2021/08/26 02:47:37;;;;;;;1999.90;999.90;;;16.60;1.00;;;;;;5033862;28;20423;-82
2021/08/26 02:50:15;;;;;;;1999.90;999.90;;;16.60;1.00;;;;;;5034795;28;20406;-82
2021/08/26 02:52:41;;;;;;;1999.90;999.90;;;16.60;22.30;;;;;;5034848;28;20471;-82
2021/08/26 02:55:07;;;;;;;1999.90;999.90;;;16.70;7.50;;;;;;5034767;28;20867;-81
2021/08/26 02:57:33;;;;;;;1999.90;999.90;;;16.70;49.00;;;;;;5034468;28;20180;-81
2021/08/26 02:59:59;;;;;;;1999.90;999.90;;;16.60;99.90;;;;;;5034755;28;20420;-82
2021/08/26 03:02:27;;;;;;;1999.90;999.90;;;16.60;99.90;;;;;;5034925;28;20184;-81
2021/08/26 03:04:53;;;;;;;1999.90;999.90;;;16.50;99.90;;;;;;5035001;28;20166;-81
2021/08/26 03:07:19;;;;;;;1999.90;999.90;;;16.40;99.90;;;;;;5034895;28;20427;-81
2021/08/26 03:09:45;;;;;;;1999.90;999.90;;;16.30;99.90;;;;;;5034740;28;20512;-81
2021/08/26 03:12:10;;;;;;;1999.90;999.90;;;16.20;99.90;;;;;;5033512;28;20507;-81
2021/08/26 03:14:36;;;;;;;1999.90;999.90;;;16.10;99.90;;;;;;5034549;28;20181;-81
2021/08/26 03:17:02;;;;;;;1999.90;999.90;;;16.10;99.90;;;;;;5017793;28;20195;-82
2021/08/26 03:19:27;;;;;;;1999.90;999.90;;;16.10;99.90;;;;;;5016868;28;20172;-82
2021/08/26 03:21:53;;;;;;;1999.90;999.90;;;16.10;99.90;;;;;;5034494;28;20170;-81
2021/08/26 03:24:19;;;;;;;1999.90;999.90;;;16.10;99.90;;;;;;5034680;28;20607;-81
2021/08/26 03:26:44;;;;;;;1999.90;999.90;;;16.00;99.90;;;;;;5017011;28;20208;-81
2021/08/26 03:29:10;;;;;;;1999.90;999.90;;;16.00;99.90;;;;;;5034366;28;20180;-81
2021/08/26 03:31:36;;;;;;;1999.90;999.90;;;16.00;99.90;;;;;;5034174;28;20174;-81
2021/08/26 03:34:01;;;;;;;1999.90;999.90;;;16.00;99.90;;;;;;5016714;28;20260;-81
2021/08/26 03:36:27;;;;;;;1999.90;999.90;;;16.10;99.90;;;;;;5016705;28;20543;-81
2021/08/26 03:38:54;;;;;;;1999.90;999.90;;;16.10;99.90;;;;;;5034326;28;20191;-82
2021/08/26 03:41:20;;;;;;;1999.90;999.90;;;16.10;99.90;;;;;;5016767;28;20757;-82
2021/08/26 03:43:46;;;;;;;1999.90;999.90;;;16.00;99.90;;;;;;5034376;28;20403;-81
2021/08/26 03:46:11;;;;;;;1999.90;999.90;;;16.00;99.90;;;;;;5034097;28;20412;-81
2021/08/26 03:48:37;;;;;;;1999.90;999.90;;;16.10;99.90;;;;;;5032635;28;20434;-82
2021/08/26 03:51:03;;;;;;;1999.90;999.90;;;16.10;99.90;;;;;;5034305;28;20181;-81
2021/08/26 03:53:28;;;;;;;1999.90;999.90;;;16.20;99.90;;;;;;5034248;28;20169;-82
2021/08/26 03:55:54;;;;;;;1999.90;999.90;;;16.20;99.90;;;;;;5033726;28;20234;-82
2021/08/26 03:58:20;;;;;;;1999.90;999.90;;;16.20;99.90;;;;;;5033828;28;20187;-82
2021/08/26 04:00:45;;;;;;;1999.90;999.90;;;16.20;99.90;;;;;;5034007;28;20219;-82
2021/08/26 04:03:11;;;;;;;1999.90;999.90;;;16.20;99.90;;;;;;5034127;28;20153;-82
2021/08/26 04:05:37;;;;;;;1999.90;999.90;;;16.20;99.90;;;;;;5032397;28;20259;-82
2021/08/26 04:08:02;;;;;;;1999.90;999.90;;;16.20;99.90;;;;;;5034475;28;20279;-82
2021/08/26 04:10:28;;;;;;;1999.90;999.90;;;16.10;99.90;;;;;;5016640;28;20183;-82
2021/08/26 04:12:54;;;;;;;1999.90;999.90;;;16.10;99.90;;;;;;5033771;28;20168;-82
2021/08/26 04:15:19;;;;;;;1999.90;999.90;;;16.00;99.90;;;;;;5015920;28;20200;-82
2021/08/26 04:17:45;;;;;;;1999.90;999.90;;;16.00;99.90;;;;;;5032688;28;20291;-82
2021/08/26 04:20:11;;;;;;;1999.90;999.90;;;16.00;99.90;;;;;;5033644;28;20588;-82
2021/08/26 04:22:37;;;;;;;1999.90;999.90;;;16.00;99.90;;;;;;5032778;28;20243;-82
2021/08/26 04:25:03;;;;;;;1999.90;999.90;;;16.00;99.90;;;;;;5016298;28;20504;-82
2021/08/26 04:27:29;;;;;;;1999.90;999.90;;;15.90;99.90;;;;;;5034080;28;20188;-82
2021/08/26 04:29:55;;;;;;;1999.90;999.90;;;15.90;1.00;;;;;;5032466;28;20449;-82
2021/08/26 04:32:20;;;;;;;1999.90;999.90;;;15.90;99.90;;;;;;5033445;28;20179;-82
2021/08/26 04:34:46;;;;;;;1999.90;999.90;;;16.00;1.00;;;;;;5015625;28;20671;-82
2021/08/26 04:37:12;;;;;;;1999.90;999.90;;;16.00;99.90;;;;;;5032204;28;20245;-82
2021/08/26 04:39:37;;;;;;;1999.90;999.90;;;15.90;99.90;;;;;;5033690;28;20176;-82
2021/08/26 04:42:03;;;;;;;1999.90;999.90;;;15.90;1.00;;;;;;5033332;28;20175;-82
2021/08/26 04:44:29;;;;;;;1999.90;999.90;;;15.90;1.00;;;;;;5033371;28;20691;-81
2021/08/26 04:46:54;;;;;;;1999.90;999.90;;;16.00;1.00;;;;;;5015514;28;20566;-82
2021/08/26 04:49:20;;;;;;;1999.90;999.90;;;16.00;1.00;;;;;;5033218;28;20172;-82
2021/08/26 04:51:46;;;;;;;1999.90;999.90;;;16.00;1.00;;;;;;5033376;28;20253;-81
2021/08/26 04:54:12;;;;;;;1999.90;999.90;;;16.00;1.00;;;;;;5033277;28;20184;-81
2021/08/26 04:56:38;;;;;;;1999.90;999.90;;;16.00;1.00;;;;;;5033824;28;20181;-82
2021/08/26 04:59:04;;;;;;;1999.90;999.90;;;16.00;1.00;;;;;;5033247;28;20919;-82
2021/08/26 05:01:30;;;;;;;1999.90;999.90;;;16.10;1.00;;;;;;5031778;28;20515;-81
2021/08/26 05:03:55;;;;;;;1999.90;999.90;;;16.00;1.00;;;;;;5015527;28;20617;-82
2021/08/26 05:06:21;;;;;;;1999.90;999.90;;;16.10;1.00;;;;;;5031843;28;20532;-82
2021/08/26 05:08:47;;;;;;;1999.90;999.90;;;16.10;1.00;;;;;;5033096;28;20717;-82
2021/08/26 05:11:20;;;;;;;1999.90;999.90;;;16.10;1.00;;;;;;5035231;28;20187;-82
2021/08/26 05:13:46;;;;;;;1999.90;999.90;;;16.10;1.00;;;;;;5036846;28;20234;-81
2021/08/26 05:16:12;;;;;;;1999.90;999.90;;;16.20;1.00;;;;;;5037460;28;20457;-81
2021/08/26 05:18:38;;;;;;;1999.90;999.90;;;16.20;1.00;;;;;;5019390;28;20430;-81
2021/08/26 05:21:03;;;;;;;1999.90;999.90;;;16.20;1.00;;;;;;5019369;28;20172;-81
2021/08/26 05:23:29;;;;;;;1999.90;999.90;;;16.20;1.00;;;;;;5037445;28;20179;-81
2021/08/26 05:25:55;;;;;;;1999.90;999.90;;;16.30;1.00;;;;;;5037366;28;20170;-81
2021/08/26 05:28:21;;;;;;;1999.90;999.90;;;16.30;1.00;;;;;;5037479;28;20427;-81
2021/08/26 05:30:47;;;;;;;1999.90;999.90;;;16.30;1.00;;;;;;5019644;28;20465;-81
2021/08/26 05:33:13;;;;;;;1999.90;999.90;;;16.30;1.00;;;;;;5037287;28;20207;-81
2021/08/26 05:35:39;;;;;;;1999.90;999.90;;;16.30;1.00;;;;;;5019338;28;20553;-81
2021/08/26 05:38:07;;;;;;;1999.90;999.90;;;16.30;1.00;;;;;;5036097;28;20465;-81
2021/08/26 05:40:32;;;;;;;1999.90;999.90;;;16.20;99.90;;;;;;5019292;28;20171;-81
2021/08/26 05:42:58;;;;;;;1999.90;999.90;;;16.20;99.90;;;;;;5036831;28;20410;-81
2021/08/26 05:45:24;;;;;;;1999.90;999.90;;;16.20;1.00;;;;;;5036680;28;20672;-81
2021/08/26 05:47:55;;;;;;;1999.90;999.90;;;16.20;99.90;;;;;;5035420;28;20670;-81
2021/08/26 05:50:22;;;;;;;1999.90;999.90;;;16.20;99.90;;;;;;5037017;28;20185;-81
2021/08/26 05:52:48;;;;;;;1999.90;999.90;;;16.30;99.90;;;;;;5035327;28;20412;-81
2021/08/26 05:55:16;;;;;;;1999.90;999.90;;;16.20;99.90;;;;;;5036746;28;20472;-82
2021/08/26 05:57:41;;;;;;;1999.90;999.90;;;16.20;99.90;;;;;;5036269;28;20423;-81
2021/08/26 06:00:08;;;;;;;1999.90;999.90;;;16.30;99.90;;;;;;5129608;22;21023;-84
2021/08/26 06:02:33;;;;;;;1999.90;999.90;;;16.30;99.90;;;;;;5101335;28;20249;-84
2021/08/26 06:04:59;;;;;;;1999.90;999.90;;;16.30;99.90;;;;;;5101137;28;20417;-84
2021/08/26 06:07:25;;;;;;;1999.90;999.90;;;16.30;99.90;;;;;;5082449;28;20240;-84
2021/08/26 06:09:50;;;;;;;1999.90;999.90;;;16.30;99.90;;;;;;5101068;28;20181;-84
2021/08/26 06:12:16;;;;;;;1999.90;999.90;;;16.40;99.90;;;;;;5083068;28;20263;-84
2021/08/26 06:14:42;;;;;;;1999.90;999.90;;;16.30;99.90;;;;;;5101763;28;20185;-84
2021/08/26 06:17:08;;;;;;;1999.90;999.90;;;16.30;99.90;;;;;;5083500;28;20440;-84
2021/08/26 06:19:33;;;;;;;1999.90;999.90;;;16.20;99.90;;;;;;5098097;28;20195;-82
2021/08/26 06:21:59;;;;;;;1999.90;999.90;;;16.20;99.90;;;;;;5077576;28;20167;-83
2021/08/26 06:24:25;;;;;;;1999.90;999.90;;;16.20;94.00;;;;;;5096541;28;20646;-82
2021/08/26 06:26:50;;;;;;;1999.90;999.90;;;16.30;94.20;;;;;;5095866;28;20267;-82
2021/08/26 06:29:16;;;;;;;1999.90;999.90;;;16.40;13.40;;;;;;5095898;28;20293;-82
2021/08/26 06:31:44;;;;;;;1999.90;999.90;;;16.40;1.00;;;;;;5096040;28;20169;-83
2021/08/26 06:34:10;;;;;;;1999.90;999.90;;;16.40;1.00;;;;;;5096236;28;20177;-82
2021/08/26 06:36:35;;;;;;;1999.90;999.90;;;16.40;1.00;;;;;;5078055;28;20412;-82
2021/08/26 06:39:01;;;;;;;1999.90;999.90;;;16.40;1.00;;;;;;5096250;28;20162;-83
2021/08/26 06:41:27;;;;;;;1999.90;999.90;;;16.40;1.00;;;;;;5096494;28;20213;-83
2021/08/26 06:43:52;;;;;;;1999.90;999.90;;;16.50;1.00;;;;;;5097052;28;20596;-83
2021/08/26 06:46:18;;;;;;;1999.90;999.90;;;16.50;1.00;;;;;;5078897;28;20171;-82
2021/08/26 06:48:44;;;;;;;1999.90;999.90;;;16.50;1.00;;;;;;5096280;28;20190;-84
2021/08/26 06:51:10;;;;;;;1999.90;999.90;;;16.60;99.90;;;;;;5096373;28;20429;-83
2021/08/26 06:53:35;;;;;;;1999.90;999.90;;;16.60;1.00;;;;;;5078788;28;20187;-83
2021/08/26 06:56:01;;;;;;;1999.90;999.90;;;16.70;1.00;;;;;;5096834;28;20183;-84
2021/08/26 06:58:27;;;;;;;1999.90;999.90;;;16.80;99.90;;;;;;5078866;28;20183;-83
2021/08/26 07:00:52;;;;;;;1999.90;999.90;;;16.80;99.90;;;;;;5097187;28;20189;-83
2021/08/26 07:03:18;;;;;;;1999.90;999.90;;;16.80;99.90;;;;;;5080129;28;20175;-85
2021/08/26 07:05:44;;;;;;;1999.90;999.90;;;16.80;99.90;;;;;;5100323;28;20166;-84
2021/08/26 07:08:09;;;;;;;1999.90;999.90;;;16.80;99.90;;;;;;5081871;28;20289;-84
2021/08/26 07:10:35;;;;;;;1999.90;999.90;;;16.80;99.90;;;;;;5100982;28;20580;-84
2021/08/26 07:13:00;;;;;;;1999.90;999.90;;;16.80;99.90;;;;;;5100814;28;20163;-84
2021/08/26 07:15:26;;;;;;;1999.90;999.90;;;16.80;99.90;;;;;;5100396;28;20192;-84
2021/08/26 07:17:53;;;;;;;1999.90;999.90;;;16.90;99.90;;;;;;5100838;28;20194;-84
2021/08/26 07:20:18;;;;;;;1999.90;999.90;;;16.90;99.90;;;;;;5082128;28;20163;-84
2021/08/26 07:22:45;;;;;;;1999.90;999.90;;;16.90;99.90;;;;;;5081747;28;20492;-83
2021/08/26 07:25:11;;;;;;;1999.90;999.90;;;17.00;99.90;;;;;;5100579;28;20270;-84
2021/08/26 07:27:37;;;;;;;1999.90;999.90;;;17.00;76.80;;;;;;5081802;28;21015;-85
2021/08/26 07:30:03;;;;;;;1999.90;999.90;;;17.10;1.00;;;;;;5099105;28;20429;-85
2021/08/26 07:32:29;;;;;;;1999.90;999.90;;;17.10;99.90;;;;;;5081243;28;20174;-85
2021/08/26 07:34:55;;;;;;;1999.90;999.90;;;17.10;99.90;;;;;;5080540;28;20437;-84
2021/08/26 07:37:21;;;;;;;1999.90;999.90;;;17.20;28.90;;;;;;5098410;28;20190;-84
2021/08/26 07:39:46;;;;;;;1999.90;999.90;;;17.20;99.90;;;;;;5081115;28;20401;-84
2021/08/26 07:42:12;;;;;;;1999.90;999.90;;;17.30;90.50;;;;;;5099564;28;20164;-84
2021/08/26 07:44:38;;;;;;;1999.90;999.90;;;17.40;97.70;;;;;;5098784;28;20248;-84
2021/08/26 07:47:04;;;;;;;1999.90;999.90;;;17.50;1.00;;;;;;5080782;28;20187;-84
2021/08/26 07:49:30;;;;;;;1999.90;999.90;;;17.50;99.90;;;;;;5098644;28;20479;-83
2021/08/26 07:51:55;;;;;;;1999.90;999.90;;;17.60;99.90;;;;;;5098125;28;20170;-84
2021/08/26 07:54:21;;;;;;;1999.90;999.90;;;17.60;99.90;;;;;;5080025;28;20437;-84
2021/08/26 07:56:47;;;;;;;1999.90;999.90;;;17.60;99.90;;;;;;5097972;28;20187;-83
2021/08/26 07:59:13;;;;;;;1999.90;999.90;;;17.70;99.90;;;;;;5079604;28;20172;-84
2021/08/26 08:01:38;;;;;;;1999.90;999.90;;;17.80;99.90;;;;;;5098136;28;20178;-84
2021/08/26 08:04:04;;;;;;;1999.90;999.90;;;17.70;1.00;;;;;;5098266;28;20270;-84
2021/08/26 08:06:29;;;;;;;1999.90;999.90;;;17.90;99.90;;;;;;5097645;28;20242;-83
2021/08/26 08:08:55;;;;;;;1999.90;999.90;;;17.90;78.40;;;;;;5079067;28;20159;-84
2021/08/26 08:11:21;;;;;;;1999.90;999.90;;;17.90;99.90;;;;;;5097356;28;20156;-83
2021/08/26 08:13:47;;;;;;;1999.90;999.90;;;17.90;99.90;;;;;;5097002;28;20242;-84
2021/08/26 08:16:12;;;;;;;1999.90;999.90;;;17.90;22.60;;;;;;5097404;28;20203;-84
2021/08/26 08:18:38;;;;;;;1999.90;999.90;;;17.90;1.00;;;;;;5097119;28;20239;-84
2021/08/26 08:21:04;;;;;;;1999.90;999.90;;;17.80;1.00;;;;;;5079035;28;20538;-84
2021/08/26 08:23:31;;;;;;;1999.90;999.90;;;17.80;1.00;;;;;;5097234;28;20402;-84
2021/08/26 08:25:57;;;;;;;1999.90;999.90;;;17.70;1.00;;;;;;5097830;28;20199;-83
2021/08/26 08:28:22;;;;;;;1999.90;999.90;;;17.60;56.70;;;;;;5097898;28;20421;-84
2021/08/26 08:30:48;;;;;;;1999.90;999.90;;;17.60;1.00;;;;;;5097725;28;20238;-83
2021/08/26 08:33:14;;;;;;;1999.90;999.90;;;17.50;1.00;;;;;;5079582;28;20219;-83
2021/08/26 08:35:40;;;;;;;1999.90;999.90;;;17.60;1.00;;;;;;5097798;28;20903;-84
2021/08/26 08:38:06;;;;;;;1999.90;999.90;;;17.70;1.00;;;;;;5097724;28;20425;-83
2021/08/26 08:40:32;;;;;;;1999.90;999.90;;;17.80;1.00;;;;;;5098155;28;20163;-83
2021/08/26 08:42:59;;;;;;;1999.90;999.90;;;17.70;99.90;;;;;;5098042;28;20394;-84
2021/08/26 08:45:28;;;;;;;1999.90;999.90;;;17.80;1.00;;;;;;5098427;28;20398;-83
2021/08/26 08:47:56;;;;;;;1999.90;999.90;;;17.90;1.00;;;;;;5083459;28;20431;-83
2021/08/26 08:50:24;;;;;;;1999.90;999.90;;;18.10;99.90;;;;;;5083709;28;20416;-83
2021/08/26 08:52:51;;;;;;;1999.90;999.90;;;18.20;1.00;;;;;;5083381;28;20413;-83
2021/08/26 08:55:19;;;;;;;1999.90;999.90;;;18.20;54.00;;;;;;5101305;28;21035;-83
2021/08/26 08:57:46;;;;;;;1999.90;999.90;;;18.20;1.00;;;;;;5100968;28;21062;-83
2021/08/26 09:00:17;;;;;;;1999.90;999.90;;;18.30;16.80;;;;;;5101724;28;20432;-84
2021/08/26 09:02:43;;;;;;;1999.90;999.90;;;18.10;50.90;;;;;;5100951;28;20392;-83
2021/08/26 09:05:09;;;;;;;1999.90;999.90;;;18.00;1.00;;;;;;5101062;28;20904;-82
2021/08/26 09:07:37;;;;;;;1999.90;999.90;;;17.90;99.90;;;;;;5100588;28;20421;-83
2021/08/26 09:10:04;;;;;;;1999.90;999.90;;;17.90;99.90;;;;;;5100372;28;20417;-83
2021/08/26 09:12:44;;;;;;;1999.90;999.90;;;17.90;99.90;;;;;;5100552;28;20504;-84
2021/08/26 09:15:28;;;;;;;1999.90;999.90;;;17.90;1.00;;;;;;5100849;28;20443;-84
2021/08/26 09:18:20;;;;;;;1999.90;999.90;;;17.90;99.90;;;;;;5100304;28;20492;-84
2021/08/26 09:21:07;;;;;;;1999.90;999.90;;;17.90;1.00;;;;;;5081890;28;20401;-83
2021/08/26 09:23:49;;;;;;;1999.90;999.90;;;18.10;99.90;;;;;;5100675;28;20736;-83
2021/08/26 09:26:18;;;;;;;1999.90;999.90;;;18.10;1.00;;;;;;5100149;28;20979;-82
2021/08/26 09:28:47;;;;;;;1999.90;999.90;;;18.30;1.00;;;;;;5100135;28;20464;-83
2021/08/26 09:31:17;;;;;;;1999.90;999.90;;;18.40;1.00;;;;;;5100320;28;20409;-83
2021/08/26 09:33:50;;;;;;;1999.90;999.90;;;18.50;1.00;;;;;;5100083;28;20401;-83
2021/08/26 09:36:24;;;;;;;1999.90;999.90;;;18.50;1.00;;;;;;5099698;28;20469;-83
2021/08/26 09:38:53;;;;;;;1999.90;999.90;;;18.60;1.00;;;;;;5099929;28;20496;-82
2021/08/26 09:41:38;;;;;;;1999.90;999.90;;;18.60;1.00;;;;;;5100514;28;20393;-83
2021/08/26 09:44:10;;;;;;;1999.90;999.90;;;18.70;1.00;;;;;;5100873;28;20389;-83
2021/08/26 09:46:36;;;;;;;1999.90;999.90;;;18.70;1.00;;;;;;5100286;28;20807;-82
2021/08/26 09:49:06;;;;;;;1999.90;999.90;;;18.70;1.00;;;;;;5082022;28;20879;-82
2021/08/26 09:51:33;;;;;;;1999.90;999.90;;;18.70;1.00;;;;;;5100024;28;20942;-84
2021/08/26 09:54:00;;;;;;;1999.90;999.90;;;18.70;1.00;;;;;;5082124;28;20416;-84
2021/08/26 09:56:37;;;;;;;1999.90;999.90;;;18.30;1.00;;;;;;5099038;28;20437;-82
2021/08/26 09:59:05;;;;;;;1999.90;999.90;;;17.90;1.00;;;;;;5083159;28;20405;-83
2021/08/26 10:01:31;;;;;;;1999.90;999.90;;;17.70;1.00;;;;;;5100221;28;20437;-83
2021/08/26 10:03:57;;;;;;;1999.90;999.90;;;17.60;4.30;;;;;;5100575;28;20405;-83
2021/08/26 10:06:26;;;;;;;1999.90;999.90;;;17.60;17.70;;;;;;5082360;28;20420;-83
2021/08/26 10:08:52;;;;;;;1999.90;999.90;;;17.60;1.00;;;;;;5100685;28;20180;-82
2021/08/26 10:11:20;;;;;;;1999.90;999.90;;;17.70;37.80;;;;;;5082014;28;20410;-82
2021/08/26 10:13:47;;;;;;;1999.90;999.90;;;17.80;2.80;;;;;;5099921;28;20397;-83
2021/08/26 10:16:13;;;;;;;1999.90;999.90;;;17.80;1.00;;;;;;5081928;28;20445;-82
2021/08/26 10:18:40;;;;;;;1999.90;999.90;;;17.80;1.00;;;;;;5100319;28;20421;-83
2021/08/26 10:21:09;;;;;;;1999.90;999.90;;;17.60;1.00;;;;;;5100609;28;20461;-83
2021/08/26 10:23:43;;;;;;;1999.90;999.90;;;17.50;1.00;;;;;;5100824;28;20401;-83
2021/08/26 10:26:16;;;;;;;1999.90;999.90;;;17.60;1.00;;;;;;5100544;28;20385;-83
2021/08/26 10:28:43;;;;;;;1999.90;999.90;;;17.70;1.00;;;;;;5100155;28;20413;-84
2021/08/26 10:31:27;;;;;;;1999.90;999.90;;;17.70;1.00;;;;;;5101277;28;20397;-83
2021/08/26 10:34:20;;;;;;;1999.90;999.90;;;17.90;1.00;;;;;;5100771;28;20455;-83
2021/08/26 10:36:58;;;;;;;1999.90;999.90;;;17.90;1.00;;;;;;5082306;28;20437;-84
2021/08/26 10:39:41;;;;;;;1999.90;999.90;;;18.00;1.00;;;;;;5100393;28;20396;-83
2021/08/26 10:42:23;;;;;;;1999.90;999.90;;;18.00;1.00;;;;;;5099883;28;20412;-82
2021/08/26 10:45:00;;;;;;;1999.90;999.90;;;18.10;1.00;;;;;;5081879;28;20401;-83
2021/08/26 10:47:47;;;;;;;1999.90;999.90;;;18.20;1.00;;;;;;5081502;28;20451;-82
2021/08/26 10:50:18;;;;;;;1999.90;999.90;;;18.30;1.00;;;;;;5099680;28;20401;-83
2021/08/26 10:53:32;;;;;;;1999.90;999.90;;;18.40;1.00;;;;;;5099349;28;20416;-83
2021/08/26 10:56:19;;;;;;;1999.90;999.90;;;18.50;1.00;;;;;;5034498;28;20509;-83
2021/08/26 10:58:48;;;;;;;1999.90;999.90;;;18.70;1.00;;;;;;5068287;28;20434;-83
2021/08/26 11:01:35;;;;;;;1999.90;999.90;;;18.90;1.00;;;;;;5099025;28;20442;-83
2021/08/26 11:04:27;;;;;;;1999.90;999.90;;;19.10;1.00;;;;;;5099765;28;20504;-83
2021/08/26 11:06:53;;;;;;;1999.90;999.90;;;19.10;1.00;;;;;;5098968;28;20994;-83
2021/08/26 11:09:25;;;;;;;1999.90;999.90;;;18.80;1.00;;;;;;5098600;28;20437;-83
2021/08/26 11:11:57;;;;;;;1999.90;999.90;;;18.80;1.00;;;;;;5099158;28;20166;-83
2021/08/26 11:14:28;;;;;;;1999.90;999.90;;;18.60;1.00;;;;;;5081318;28;20801;-83
2021/08/26 11:17:03;;;;;;;1999.90;999.90;;;18.70;1.00;;;;;;5080946;28;20453;-83
2021/08/26 11:19:35;;;;;;;1999.90;999.90;;;18.60;1.00;;;;;;5098850;28;20451;-84
2021/08/26 11:22:09;;;;;;;1999.90;999.90;;;18.50;1.00;;;;;;5080282;28;20492;-84
2021/08/26 11:24:38;;;;;;;1999.90;999.90;;;18.50;1.00;;;;;;5079765;28;20409;-84
2021/08/26 11:27:16;;;;;;;1999.90;999.90;;;18.70;1.00;;;;;;5098483;28;20426;-83
2021/08/26 11:29:42;;;;;;;1999.90;999.90;;;18.70;1.00;;;;;;5097849;28;20935;-83
2021/08/26 11:32:11;;;;;;;1999.90;999.90;;;18.70;1.00;;;;;;5098629;28;20476;-84
2021/08/26 11:34:54;;;;;;;1999.90;999.90;;;18.90;1.00;;;;;;5079526;28;20244;-83
2021/08/26 11:37:40;;;;;;;1999.90;999.90;;;18.80;1.00;;;;;;5098728;28;20428;-83
2021/08/26 11:40:12;;;;;;;1999.90;999.90;;;18.90;1.00;;;;;;5079920;28;20541;-83
2021/08/26 11:42:37;;;;;;;1999.90;999.90;;;19.00;1.00;;;;;;5098458;28;20377;-84
2021/08/26 11:45:07;;;;;;;1999.90;999.90;;;19.30;1.00;;;;;;5097784;28;20949;-83
2021/08/26 11:47:35;;;;;;;1999.90;999.90;;;19.40;99.90;;;;;;5097914;28;20228;-84
2021/08/26 11:50:16;;;;;;;1999.90;999.90;;;19.60;99.90;;;;;;5097147;28;20433;-84
2021/08/26 11:52:43;;;;;;;1999.90;999.90;;;19.50;99.90;;;;;;5097487;28;20542;-84
2021/08/26 11:55:09;;;;;;;1999.90;999.90;;;19.30;99.90;;;;;;5097276;28;20437;-83
2021/08/26 11:57:35;;;;;;;1999.90;999.90;;;19.20;99.90;;;;;;5079280;28;20433;-83
2021/08/26 12:00:53;;;;;;;1999.90;999.90;;;19.00;1.00;;;;;;5146123;22;20478;-81
2021/08/26 12:03:25;;;;;;;1999.90;999.90;;;18.80;1.00;;;;;;5056709;28;20581;-82
2021/08/26 12:05:59;;;;;;;1999.90;999.90;;;18.70;1.00;;;;;;5073826;28;20398;-81
2021/08/26 12:08:47;;;;;;;1999.90;999.90;;;18.70;1.00;;;;;;5073449;28;20414;-82
2021/08/26 12:12:04;;;;;;;1999.90;999.90;;;18.80;1.00;;;;;;5073595;28;20398;-81
2021/08/26 12:15:10;;;;;;;;;;;;;;;;;;;;;
2021/08/26 12:17:42;;;;;;;1999.90;999.90;;;18.90;1.00;;;;;;4991826;28;20794;-81
2021/08/26 12:20:19;;;;;;;1999.90;999.90;;;18.90;1.00;;;;;;4993034;28;20398;-81
2021/08/26 12:23:24;;;;;;;1999.90;999.90;;;18.90;1.00;;;;;;4992331;28;20429;-81
2021/08/26 12:26:15;;;;;;;1999.90;999.90;;;19.10;1.00;;;;;;4985944;28;20409;-81
2021/08/26 12:29:31;;;;;;;1999.90;999.90;;;19.20;1.00;;;;;;5011841;28;20503;-81
2021/08/26 12:32:38;;;;;;;1999.90;999.90;;;19.30;1.00;;;;;;5073145;28;20898;-81
2021/08/26 12:35:40;;;;;;;1999.90;999.90;;;19.40;1.00;;;;;;5073559;28;20442;-81
2021/08/26 12:38:16;;;;;;;1999.90;999.90;;;19.40;1.00;;;;;;5073743;28;20428;-81
2021/08/26 12:41:25;;;;;;;;;;;;;;;;;;;;;
2021/08/26 12:45:36;;;;;;;1999.90;999.90;;;19.60;1.00;;;;;;5073495;28;20398;-81
2021/08/26 12:48:41;;;;;;;;;;;;;;;;;;;;;
2021/08/26 12:52:02;;;;;;;;;;;;;;;;;;;;;